createdAt,value
2023-11-19T00:00:01.226Z,2.60
2023-11-19T00:02:31.193Z,1.87
2023-11-19T00:05:01.207Z,1.90
2023-11-19T00:07:35.492Z,1.57
2023-11-19T00:10:11.905Z,1.63
2023-11-19T00:12:42.596Z,1.30
2023-11-19T00:15:13.738Z,1.60
2023-11-19T00:17:46.144Z,2.10
2023-11-19T00:20:17.536Z,4.10
2023-11-19T00:22:53.044Z,1.53
2023-11-19T00:25:24.277Z,1.90
2023-11-19T00:27:55.324Z,2.80
2023-11-19T00:30:25.214Z,2.10
2023-11-19T00:32:55.057Z,2.50
2023-11-19T00:35:25.041Z,2.67
2023-11-19T00:37:59.044Z,3.00
2023-11-19T00:40:29.047Z,3.50
2023-11-19T00:43:01.278Z,2.53
2023-11-19T00:45:31.496Z,2.17
2023-11-19T00:48:01.815Z,2.63
2023-11-19T00:50:35.164Z,2.57
2023-11-19T00:53:08.876Z,3.00
2023-11-19T00:55:47.000Z,3.53
2023-11-19T00:58:19.282Z,2.40
2023-11-19T01:00:49.223Z,4.60
2023-11-19T01:03:19.329Z,2.80
2023-11-19T01:05:50.783Z,4.13
2023-11-19T01:08:23.220Z,7.40
2023-11-19T01:10:53.407Z,3.40
2023-11-19T01:13:23.654Z,3.80
2023-11-19T01:15:54.114Z,3.23
2023-11-19T01:18:24.088Z,3.67
2023-11-19T01:20:54.115Z,4.67
2023-11-19T01:23:26.529Z,4.07
2023-11-19T01:25:56.382Z,3.30
2023-11-19T01:28:26.284Z,3.30
2023-11-19T01:30:56.651Z,4.30
2023-11-19T01:33:26.621Z,3.23
2023-11-19T01:35:57.270Z,4.67
2023-11-19T01:38:29.973Z,3.27
2023-11-19T01:41:01.247Z,2.93
2023-11-19T01:43:38.307Z,2.77
2023-11-19T01:46:11.237Z,2.60
2023-11-19T01:48:45.811Z,2.43
2023-11-19T01:51:17.977Z,3.43
2023-11-19T01:53:50.786Z,2.43
2023-11-19T01:56:20.869Z,2.20
2023-11-19T01:58:52.738Z,2.20
2023-11-19T02:01:22.930Z,2.90
2023-11-19T02:03:53.447Z,1.80
2023-11-19T02:06:23.876Z,2.87
2023-11-19T02:08:56.426Z,1.93
2023-11-19T02:11:30.511Z,3.20
2023-11-19T02:14:01.119Z,1.97
2023-11-19T02:16:31.236Z,3.80
2023-11-19T02:19:01.207Z,5.30
2023-11-19T02:21:31.087Z,2.53
2023-11-19T02:26:43.383Z,3.80
2023-11-19T02:29:16.570Z,2.40
2023-11-19T02:31:46.472Z,2.50
2023-11-19T02:34:17.494Z,2.90
2023-11-19T02:36:48.590Z,2.50
2023-11-19T02:39:22.709Z,4.70
2023-11-19T02:41:54.352Z,4.50
2023-11-19T02:44:29.497Z,4.00
2023-11-19T02:47:00.724Z,4.40
2023-11-19T02:49:30.609Z,4.07
2023-11-19T02:52:22.027Z,5.97
2023-11-19T02:54:51.929Z,5.97
2023-11-19T02:57:26.316Z,5.93
2023-11-19T03:00:00.482Z,5.53
2023-11-19T03:02:35.456Z,6.50
2023-11-19T03:05:10.110Z,7.00
2023-11-19T03:07:40.781Z,6.47
2023-11-19T03:10:16.075Z,7.83
2023-11-19T03:12:47.798Z,8.63
2023-11-19T03:15:22.254Z,7.30
2023-11-19T03:17:56.720Z,8.67
2023-11-19T03:20:29.089Z,5.83
2023-11-19T03:22:58.931Z,8.83
2023-11-19T03:25:34.441Z,7.80
2023-11-19T03:28:05.025Z,6.40
2023-11-19T03:30:39.323Z,10.07
2023-11-19T03:33:09.481Z,5.67
2023-11-19T03:35:39.611Z,7.53
2023-11-19T03:38:09.512Z,10.60
2023-11-19T03:40:40.274Z,6.57
2023-11-19T03:43:11.056Z,7.10
2023-11-19T03:45:43.750Z,8.50
2023-11-19T03:48:13.607Z,7.20
2023-11-19T03:50:43.404Z,10.57
2023-11-19T03:53:16.027Z,9.67
2023-11-19T03:55:46.484Z,8.70
2023-11-19T03:58:16.388Z,12.43
2023-11-19T04:00:48.926Z,14.07
2023-11-19T04:03:20.880Z,7.97
2023-11-19T04:05:50.735Z,12.43
2023-11-19T04:08:20.824Z,11.30
2023-11-19T04:10:51.405Z,10.20
2023-11-19T04:13:21.235Z,10.90
2023-11-19T04:15:53.717Z,9.83
2023-11-19T04:18:23.548Z,11.30
2023-11-19T04:20:53.490Z,12.43
2023-11-19T04:23:23.342Z,11.90
2023-11-19T04:25:53.644Z,14.63
2023-11-19T04:28:23.634Z,11.47
2023-11-19T04:30:56.089Z,8.30
2023-11-19T04:33:26.441Z,11.10
2023-11-19T04:35:56.234Z,10.43
2023-11-19T04:38:28.137Z,11.30
2023-11-19T04:40:58.557Z,11.97
2023-11-19T04:43:28.589Z,15.33
2023-11-19T04:46:01.325Z,10.00
2023-11-19T04:48:42.032Z,11.73
2023-11-19T04:51:13.586Z,10.23
2023-11-19T04:53:43.407Z,9.40
2023-11-19T04:56:14.619Z,11.87
2023-11-19T04:58:44.484Z,18.47
2023-11-19T05:01:20.767Z,17.33
2023-11-19T05:03:50.757Z,13.33
2023-11-19T05:06:20.992Z,18.67
2023-11-19T05:08:50.917Z,14.77
2023-11-19T05:11:21.268Z,16.40
2023-11-19T05:13:51.409Z,16.13
2023-11-19T05:16:23.963Z,19.57
2023-11-19T05:18:53.900Z,18.00
2023-11-19T05:21:23.738Z,14.10
2023-11-19T05:23:53.542Z,17.03
2023-11-19T05:26:23.979Z,14.83
2023-11-19T05:28:54.814Z,14.93
2023-11-19T05:31:28.027Z,17.93
2023-11-19T05:33:57.883Z,16.53
2023-11-19T05:36:28.964Z,17.13
2023-11-19T05:38:59.011Z,21.17
2023-11-19T05:41:28.821Z,19.17
2023-11-19T05:43:58.804Z,16.10
2023-11-19T05:46:31.396Z,21.00
2023-11-19T05:49:01.552Z,22.73
2023-11-19T05:51:31.436Z,17.47
2023-11-19T05:54:01.484Z,20.80
2023-11-19T05:56:33.846Z,18.20
2023-11-19T05:59:08.024Z,16.27
2023-11-19T06:01:42.881Z,20.63
2023-11-19T06:04:13.502Z,13.73
2023-11-19T06:06:43.491Z,20.07
2023-11-19T06:09:14.701Z,14.37
2023-11-19T06:11:45.858Z,20.50
2023-11-19T06:14:23.545Z,19.37
2023-11-19T06:16:56.090Z,12.70
2023-11-19T06:19:29.344Z,14.80
2023-11-19T06:22:00.556Z,13.07
2023-11-19T06:24:34.435Z,17.43
2023-11-19T06:27:04.266Z,14.00
2023-11-19T06:29:34.094Z,13.17
2023-11-19T06:34:42.539Z,20.13
2023-11-19T06:37:12.487Z,18.23
2023-11-19T06:39:42.397Z,22.97
2023-11-19T06:42:12.315Z,18.83
2023-11-19T06:44:42.190Z,16.30
2023-11-19T06:47:17.029Z,16.00
2023-11-19T06:49:48.282Z,16.37
2023-11-19T06:52:18.237Z,15.53
2023-11-19T06:54:48.289Z,20.60
2023-11-19T06:57:21.250Z,17.70
2023-11-19T06:59:51.070Z,13.63
2023-11-19T07:02:25.057Z,18.77
2023-11-19T07:04:56.293Z,17.90
2023-11-19T07:07:27.704Z,23.13
2023-11-19T07:09:57.621Z,18.23
2023-11-19T07:12:27.894Z,18.57
2023-11-19T07:14:58.262Z,25.93
2023-11-19T07:17:33.226Z,19.47
2023-11-19T07:20:03.333Z,21.60
2023-11-19T07:22:33.307Z,19.30
2023-11-19T07:25:05.319Z,14.67
2023-11-19T07:27:35.253Z,17.10
2023-11-19T07:30:05.116Z,19.97
2023-11-19T07:32:40.469Z,20.33
2023-11-19T07:35:13.261Z,21.10
2023-11-19T07:37:44.346Z,14.73
2023-11-19T07:40:15.550Z,19.80
2023-11-19T07:42:45.405Z,18.60
2023-11-19T07:45:15.392Z,14.23
2023-11-19T07:47:48.209Z,12.67
2023-11-19T07:50:20.795Z,20.50
2023-11-19T07:52:50.660Z,14.73
2023-11-19T07:55:20.598Z,23.90
2023-11-19T07:57:50.509Z,17.80
2023-11-19T08:00:21.613Z,15.77
2023-11-19T08:02:54.167Z,24.67
2023-11-19T08:05:25.871Z,16.67
2023-11-19T08:07:55.882Z,21.30
2023-11-19T08:10:26.043Z,18.50
2023-11-19T08:12:55.869Z,14.47
2023-11-19T08:18:01.384Z,19.70
2023-11-19T08:20:43.336Z,19.17
2023-11-19T08:23:14.331Z,16.97
2023-11-19T08:25:44.482Z,16.97
2023-11-19T08:28:14.374Z,22.07
2023-11-19T08:30:45.453Z,22.27
2023-11-19T08:33:18.316Z,19.07
2023-11-19T08:35:48.573Z,16.03
2023-11-19T08:38:31.607Z,21.70
2023-11-19T08:41:02.284Z,20.27
2023-11-19T08:43:33.161Z,17.27
2023-11-19T08:46:03.193Z,18.27
2023-11-19T08:48:35.623Z,19.83
2023-11-19T08:51:06.041Z,19.13
2023-11-19T08:53:35.995Z,14.43
2023-11-19T08:56:06.551Z,26.93
2023-11-19T08:58:36.568Z,19.60
2023-11-19T09:01:06.738Z,17.57
2023-11-19T09:03:39.370Z,22.57
2023-11-19T09:06:13.459Z,22.50
2023-11-19T09:08:43.320Z,17.83
2023-11-19T09:11:13.561Z,20.50
2023-11-19T09:13:46.524Z,26.20
2023-11-19T09:16:16.994Z,22.27
2023-11-19T09:18:49.587Z,19.80
2023-11-19T09:21:19.566Z,18.60
2023-11-19T09:23:50.538Z,19.77
2023-11-19T09:26:20.537Z,19.53
2023-11-19T09:28:50.619Z,21.27
2023-11-19T09:31:21.550Z,21.43
2023-11-19T09:33:54.091Z,20.83
2023-11-19T09:36:24.059Z,24.90
2023-11-19T09:38:53.882Z,25.60
2023-11-19T09:41:23.885Z,24.30
2023-11-19T09:43:54.837Z,17.93
2023-11-19T09:46:25.820Z,21.73
2023-11-19T09:49:00.682Z,23.57
2023-11-19T09:51:30.734Z,17.43
2023-11-19T09:54:00.563Z,16.83
2023-11-19T09:56:31.735Z,22.77
2023-11-19T09:59:03.214Z,16.80
2023-11-19T10:01:33.443Z,18.27
2023-11-19T10:04:06.480Z,21.07
2023-11-19T10:06:36.827Z,18.50
2023-11-19T10:09:09.770Z,18.60
2023-11-19T10:11:39.620Z,28.27
2023-11-19T10:14:09.617Z,25.23
2023-11-19T10:16:39.581Z,26.13
2023-11-19T10:19:12.160Z,18.73
2023-11-19T10:21:42.371Z,18.37
2023-11-19T10:24:12.575Z,19.20
2023-11-19T10:26:42.481Z,15.80
2023-11-19T10:29:12.385Z,18.43
2023-11-19T10:31:42.251Z,21.20
2023-11-19T10:34:29.256Z,13.10
2023-11-19T10:36:59.181Z,17.40
2023-11-19T10:39:52.329Z,22.13
2023-11-19T10:42:22.214Z,13.63
2023-11-19T10:44:52.390Z,16.50
2023-11-19T10:49:59.479Z,21.27
2023-11-19T10:52:31.033Z,19.20
2023-11-19T10:55:06.996Z,20.57
2023-11-19T10:57:40.720Z,17.43
2023-11-19T11:00:21.672Z,23.87
2023-11-19T11:02:58.097Z,16.00
2023-11-19T11:05:38.113Z,17.07
2023-11-19T11:12:46.964Z,15.93
2023-11-19T11:15:17.053Z,22.93
2023-11-19T11:17:48.977Z,16.83
2023-11-19T11:20:19.079Z,18.10
2023-11-19T11:23:08.277Z,17.37
2023-11-19T11:25:48.019Z,21.93
2023-11-19T11:28:30.039Z,20.07
2023-11-19T11:31:28.266Z,21.80
2023-11-19T11:34:20.698Z,12.87
2023-11-19T11:37:01.992Z,22.23
2023-11-19T11:39:34.612Z,15.53
2023-11-19T11:42:35.107Z,23.33
2023-11-19T11:45:15.880Z,18.03
2023-11-19T11:48:17.716Z,18.20
2023-11-19T11:50:55.739Z,21.20
2023-11-19T11:53:27.628Z,16.80
2023-11-19T11:56:01.167Z,18.90
2023-11-19T11:58:44.600Z,14.00
2023-11-19T12:01:21.964Z,20.60
2023-11-19T12:03:56.424Z,21.90
2023-11-19T12:06:27.430Z,22.57
2023-11-19T12:09:03.268Z,17.27
2023-11-19T12:11:38.498Z,26.63
2023-11-19T12:14:09.177Z,18.57
2023-11-19T12:16:40.423Z,18.77
2023-11-19T12:19:11.187Z,13.50
2023-11-19T12:21:41.072Z,18.80
2023-11-19T12:24:12.733Z,17.83
2023-11-19T12:26:45.577Z,18.10
2023-11-19T12:29:15.470Z,19.37
2023-11-19T12:31:48.793Z,21.00
2023-11-19T12:34:18.664Z,21.40
2023-11-19T12:36:48.709Z,19.40
2023-11-19T12:39:19.245Z,13.80
2023-11-19T12:42:00.452Z,12.97
2023-11-19T12:44:31.305Z,15.73
2023-11-19T12:47:05.475Z,17.23
2023-11-19T12:49:35.491Z,11.80
2023-11-19T12:52:05.749Z,17.07
2023-11-19T12:54:39.697Z,16.63
2023-11-19T12:57:12.134Z,15.17
2023-11-19T12:59:42.066Z,16.20
2023-11-19T13:02:11.998Z,16.17
2023-11-19T13:04:41.995Z,12.80
2023-11-19T13:07:11.924Z,13.60
2023-11-19T13:09:41.846Z,13.63
2023-11-19T13:12:20.588Z,14.80
2023-11-19T13:14:51.178Z,20.83
2023-11-19T13:17:22.278Z,14.13
2023-11-19T13:19:53.625Z,13.60
2023-11-19T13:22:23.501Z,18.33
2023-11-19T13:24:53.352Z,18.30
2023-11-19T13:27:28.057Z,14.87
2023-11-19T13:29:57.867Z,14.87
2023-11-19T13:32:27.774Z,16.13
2023-11-19T13:34:57.629Z,13.63
2023-11-19T13:37:27.563Z,13.60
2023-11-19T13:39:57.424Z,13.20
2023-11-19T13:42:29.970Z,18.17
2023-11-19T13:45:00.281Z,10.60
2023-11-19T13:47:30.125Z,11.73
2023-11-19T13:50:00.037Z,12.13
2023-11-19T13:52:29.850Z,12.37
2023-11-19T13:54:59.768Z,11.00
2023-11-19T13:57:35.642Z,8.10
2023-11-19T14:00:08.039Z,11.50
2023-11-19T14:02:38.063Z,10.30
2023-11-19T14:05:08.331Z,12.97
2023-11-19T14:07:38.370Z,11.33
2023-11-19T14:10:10.747Z,12.00
2023-11-19T14:12:44.115Z,13.53
2023-11-19T14:15:15.201Z,11.30
2023-11-19T14:17:45.162Z,13.80
2023-11-19T14:20:17.409Z,15.13
2023-11-19T14:22:49.961Z,12.47
2023-11-19T14:25:20.121Z,11.67
2023-11-19T14:27:52.638Z,17.70
2023-11-19T14:30:22.477Z,20.07
2023-11-19T14:32:52.387Z,15.97
2023-11-19T14:35:22.382Z,10.27
2023-11-19T14:37:52.297Z,13.07
2023-11-19T14:40:22.948Z,16.57
2023-11-19T14:42:59.180Z,13.60
2023-11-19T14:45:29.748Z,15.83
2023-11-19T14:48:00.922Z,10.03
2023-11-19T14:50:30.839Z,13.87
2023-11-19T14:53:00.675Z,17.70
2023-11-19T14:55:30.524Z,12.73
2023-11-19T14:58:08.637Z,14.20
2023-11-19T15:00:40.480Z,12.47
2023-11-19T15:03:13.558Z,15.07
2023-11-19T15:05:43.405Z,13.63
2023-11-19T15:08:13.437Z,12.63
2023-11-19T15:10:43.252Z,12.33
2023-11-19T15:13:15.671Z,13.17
2023-11-19T15:15:45.754Z,12.07
2023-11-19T15:18:15.698Z,12.90
2023-11-19T15:20:48.423Z,16.93
2023-11-19T15:23:18.346Z,12.67
2023-11-19T15:25:48.379Z,13.53
2023-11-19T15:28:20.865Z,13.73
2023-11-19T15:30:50.922Z,13.77
2023-11-19T15:33:20.811Z,13.93
2023-11-19T15:35:50.816Z,17.10
2023-11-19T15:38:20.761Z,15.47
2023-11-19T15:40:50.655Z,9.57
2023-11-19T15:43:23.888Z,16.23
2023-11-19T15:45:53.791Z,16.27
2023-11-19T15:48:23.662Z,12.07
2023-11-19T15:50:53.544Z,12.80
2023-11-19T15:53:23.474Z,15.40
2023-11-19T15:55:54.134Z,17.23
2023-11-19T15:58:26.591Z,12.27
2023-11-19T16:00:57.083Z,15.53
2023-11-19T16:03:27.876Z,12.80
2023-11-19T16:06:06.854Z,17.27
2023-11-19T16:08:40.075Z,11.50
2023-11-19T16:11:11.266Z,10.47
2023-11-19T16:13:44.019Z,12.33
2023-11-19T16:16:13.983Z,12.60
2023-11-19T16:18:43.836Z,13.90
2023-11-19T16:21:13.797Z,14.63
2023-11-19T16:23:43.723Z,13.73
2023-11-19T16:26:14.492Z,12.00
2023-11-19T16:28:51.135Z,9.13
2023-11-19T16:31:21.050Z,14.20
2023-11-19T16:33:50.919Z,17.60
2023-11-19T16:36:20.837Z,16.77
2023-11-19T16:38:50.803Z,19.63
2023-11-19T16:41:35.722Z,9.90
2023-11-19T16:44:12.665Z,14.63
2023-11-19T16:46:42.874Z,14.30
2023-11-19T16:49:13.347Z,15.03
2023-11-19T16:51:52.063Z,13.37
2023-11-19T16:54:23.088Z,11.10
2023-11-19T16:56:52.985Z,15.77
2023-11-19T16:59:25.726Z,14.50
2023-11-19T17:01:56.110Z,12.83
2023-11-19T17:04:28.626Z,17.27
2023-11-19T17:06:58.455Z,15.17
2023-11-19T17:09:29.004Z,18.50
2023-11-19T17:11:58.901Z,14.40
2023-11-19T17:17:04.296Z,18.70
2023-11-19T17:19:34.195Z,13.50
2023-11-19T17:22:04.226Z,16.30
2023-11-19T17:24:34.065Z,17.07
2023-11-19T17:27:03.897Z,15.37
2023-11-19T17:29:36.460Z,18.57
2023-11-19T17:32:06.624Z,17.23
2023-11-19T17:34:36.762Z,18.10
2023-11-19T17:37:07.325Z,14.43
2023-11-19T17:39:37.820Z,17.03
2023-11-19T17:42:08.279Z,15.07
2023-11-19T17:44:42.209Z,17.97
2023-11-19T17:47:12.182Z,17.23
2023-11-19T17:49:42.445Z,23.20
2023-11-19T17:52:13.989Z,21.93
2023-11-19T17:54:43.904Z,14.80
2023-11-19T17:57:14.171Z,14.53
2023-11-19T17:59:48.189Z,15.50
2023-11-19T18:02:18.060Z,19.33
2023-11-19T18:04:49.363Z,17.47
2023-11-19T18:07:19.777Z,15.37
2023-11-19T18:09:49.820Z,14.93
2023-11-19T18:12:19.816Z,16.57
2023-11-19T18:14:54.977Z,13.10
2023-11-19T18:17:24.940Z,17.77
2023-11-19T18:19:55.038Z,18.60
2023-11-19T18:22:25.508Z,12.50
2023-11-19T18:24:55.625Z,17.70
2023-11-19T18:27:25.439Z,13.57
2023-11-19T18:29:58.028Z,18.73
2023-11-19T18:32:27.974Z,19.27
2023-11-19T18:34:57.868Z,18.20
2023-11-19T18:37:28.268Z,14.67
2023-11-19T18:39:58.149Z,15.53
2023-11-19T18:42:27.951Z,14.50
2023-11-19T18:45:01.970Z,13.23
2023-11-19T18:47:31.869Z,19.33
2023-11-19T18:50:01.746Z,18.63
2023-11-19T18:52:31.597Z,16.63
2023-11-19T18:55:01.418Z,18.73
2023-11-19T18:57:31.825Z,14.40
2023-11-19T19:00:06.769Z,14.33
2023-11-19T19:02:37.117Z,14.93
2023-11-19T19:05:10.678Z,15.80
2023-11-19T19:07:40.967Z,18.23
2023-11-19T19:10:14.863Z,14.77
2023-11-19T19:12:46.103Z,14.53
2023-11-19T19:15:19.512Z,14.80
2023-11-19T19:17:50.960Z,24.37
2023-11-19T19:20:21.967Z,14.90
2023-11-19T19:22:51.906Z,11.90
2023-11-19T19:25:21.727Z,12.10
2023-11-19T19:28:20.368Z,13.77
2023-11-19T19:30:44.814Z,16.13
2023-11-19T19:33:15.258Z,15.37
2023-11-19T19:35:45.426Z,8.60
2023-11-19T19:38:15.308Z,10.37
2023-11-19T19:40:45.217Z,12.60
2023-11-19T19:43:15.183Z,7.70
2023-11-19T19:45:47.667Z,7.97
2023-11-19T19:48:17.523Z,9.17
2023-11-19T19:50:47.590Z,5.50
2023-11-19T19:53:17.414Z,8.57
2023-11-19T19:55:47.470Z,11.20
2023-11-19T19:58:19.194Z,8.17
2023-11-19T20:00:52.907Z,7.33
2023-11-19T20:03:22.889Z,8.50
2023-11-19T20:05:52.808Z,7.90
2023-11-19T20:08:23.772Z,5.70
2023-11-19T20:10:58.006Z,6.20
2023-11-19T20:13:31.751Z,6.70
2023-11-19T20:16:04.455Z,7.00
2023-11-19T20:18:34.738Z,7.47
2023-11-19T20:21:09.802Z,7.77
2023-11-19T20:23:39.780Z,10.13
2023-11-19T20:26:09.832Z,7.60
2023-11-19T20:28:39.673Z,8.23
2023-11-19T20:31:12.226Z,6.50
2023-11-19T20:33:42.214Z,5.37
2023-11-19T20:36:16.663Z,8.50
2023-11-19T20:40:02.281Z,3.67
2023-11-19T20:42:51.392Z,7.33
2023-11-19T20:45:23.383Z,5.63
2023-11-19T20:47:55.925Z,6.90
2023-11-19T20:50:26.989Z,4.97
2023-11-19T20:52:58.260Z,4.50
2023-11-19T20:55:30.519Z,6.37
2023-11-19T20:58:01.461Z,2.57
2023-11-19T21:00:31.340Z,3.97
2023-11-19T21:03:04.036Z,4.07
2023-11-19T21:05:34.652Z,3.80
2023-11-19T21:08:05.115Z,6.63
2023-11-19T21:10:35.079Z,3.73
2023-11-19T21:13:04.976Z,3.63
2023-11-19T21:15:39.353Z,5.00
2023-11-19T21:18:14.288Z,2.10
2023-11-19T21:20:44.117Z,5.80
2023-11-19T21:23:13.933Z,4.30
2023-11-19T21:25:46.520Z,3.60
2023-11-19T21:28:16.372Z,4.07
2023-11-19T21:30:46.454Z,7.13
2023-11-19T21:33:19.871Z,6.07
2023-11-19T21:35:49.708Z,5.00
2023-11-19T21:38:19.893Z,3.10
2023-11-19T21:40:50.658Z,4.90
2023-11-19T21:43:20.989Z,6.20
2023-11-19T21:45:50.902Z,4.77
2023-11-19T21:48:23.447Z,9.80
2023-11-19T21:50:53.330Z,7.30
2023-11-19T21:53:23.201Z,4.97
2023-11-19T21:56:12.475Z,4.27
2023-11-19T21:58:42.857Z,4.47
2023-11-19T22:01:13.107Z,4.07
2023-11-19T22:03:45.660Z,3.47
2023-11-19T22:06:20.421Z,4.37
2023-11-19T22:08:50.362Z,6.13
2023-11-19T22:11:20.366Z,6.03
2023-11-19T22:13:52.063Z,6.33
2023-11-19T22:16:22.003Z,3.00
2023-11-19T22:18:55.021Z,4.00
2023-11-19T22:21:25.730Z,5.03
2023-11-19T22:23:55.644Z,4.23
2023-11-19T22:26:25.481Z,6.97
2023-11-19T22:28:55.340Z,7.07
2023-11-19T22:31:25.484Z,5.93
2023-11-19T22:33:58.067Z,5.63
2023-11-19T22:36:27.958Z,6.27
2023-11-19T22:38:57.896Z,12.00
2023-11-19T22:41:27.768Z,4.87
2023-11-19T22:43:57.829Z,4.93
2023-11-19T22:46:29.953Z,5.73
2023-11-19T22:49:02.545Z,6.20
2023-11-19T22:51:32.484Z,7.63
2023-11-19T22:54:02.388Z,6.03
2023-11-19T22:56:32.215Z,4.90
2023-11-19T22:59:02.113Z,6.37
2023-11-19T23:01:33.487Z,6.40
2023-11-19T23:04:08.112Z,7.70
2023-11-19T23:06:38.049Z,6.73
2023-11-19T23:09:08.512Z,5.20
2023-11-19T23:11:38.497Z,12.23
2023-11-19T23:14:08.618Z,6.10
2023-11-19T23:16:44.270Z,7.70
2023-11-19T23:19:16.714Z,8.27
2023-11-19T23:21:46.614Z,7.13
2023-11-19T23:24:16.684Z,4.87
2023-11-19T23:26:46.726Z,6.70
2023-11-19T23:29:16.819Z,7.00
2023-11-19T23:31:49.657Z,8.10
2023-11-19T23:34:43.895Z,4.63
2023-11-19T23:37:13.491Z,6.70
2023-11-19T23:39:43.671Z,8.67
2023-11-19T23:42:14.330Z,5.47
2023-11-19T23:44:44.219Z,5.90
2023-11-19T23:47:14.509Z,5.03
2023-11-19T23:49:47.298Z,6.53
2023-11-19T23:52:17.190Z,6.67
2023-11-19T23:54:48.006Z,6.07
2023-11-19T23:57:18.047Z,4.60
2023-11-19T23:59:47.881Z,5.70
